Time;durP1;ratioP1;P1;durP2;ratioP2;P2;SDS_P1;SDS_P2;PMS_P1;PMS_P2;Temp;Humidity;BMP_temperature;BMP_pressure;BME280_temperature;BME280_humidity;BME280_pressure;Samples;Min_cycle;Max_cycle;Signal;HPM_P1;HPM_P2
2021/07/17 00:01:59;;;;;;;18.60;7.20;;;;;;;;;;4992300;28;20033;-66
2021/07/17 00:04:25;;;;;;;24.52;7.47;;;;;;;;;;4996973;28;20015;-66
2021/07/17 00:06:51;;;;;;;27.40;8.68;;;;;;;;;;4995264;28;20446;-66
2021/07/17 00:09:17;;;;;;;24.63;8.43;;;;;;;;;;4996282;28;20058;-66
2021/07/17 00:11:43;;;;;;;28.75;9.40;;;;;;;;;;4997018;28;20034;-66
2021/07/17 00:14:09;;;;;;;28.17;8.15;;;;;;;;;;4996779;28;20113;-66
2021/07/17 00:16:35;;;;;;;24.88;8.15;;;;;;;;;;4986546;28;20103;-66
2021/07/17 00:19:01;;;;;;;28.83;8.55;;;;;;;;;;5004210;28;20021;-66
2021/07/17 00:21:27;;;;;;;29.58;8.98;;;;;;;;;;4996576;28;20033;-65
2021/07/17 00:23:53;;;;;;;21.80;8.32;;;;;;;;;;4996554;28;20030;-66
2021/07/17 00:26:19;;;;;;;29.90;7.88;;;;;;;;;;4996704;28;20494;-66
2021/07/17 00:28:45;;;;;;;24.42;8.27;;;;;;;;;;4996379;28;20372;-66
2021/07/17 00:31:11;;;;;;;24.70;7.05;;;;;;;;;;5005300;28;20143;-66
2021/07/17 00:33:37;;;;;;;24.98;8.30;;;;;;;;;;5004440;28;20052;-66
2021/07/17 00:36:04;;;;;;;21.77;8.30;;;;;;;;;;5003181;28;20041;-65
2021/07/17 00:38:30;;;;;;;25.08;7.93;;;;;;;;;;4995630;28;20026;-66
2021/07/17 00:40:56;;;;;;;33.70;9.27;;;;;;;;;;4995259;28;20129;-66
2021/07/17 00:43:22;;;;;;;29.92;8.05;;;;;;;;;;4995904;28;20412;-66
2021/07/17 00:45:48;;;;;;;29.70;8.50;;;;;;;;;;4994997;28;20034;-66
2021/07/17 00:48:15;;;;;;;26.30;7.78;;;;;;;;;;4995938;28;20030;-66
2021/07/17 00:50:42;;;;;;;26.02;9.32;;;;;;;;;;4996898;28;20030;-66
2021/07/17 00:53:08;;;;;;;25.00;8.13;;;;;;;;;;4995772;28;20025;-66
2021/07/17 00:55:34;;;;;;;29.10;7.72;;;;;;;;;;4996151;28;20097;-66
2021/07/17 00:58:02;;;;;;;22.73;8.50;;;;;;;;;;4991848;28;20031;-66
2021/07/17 01:00:27;;;;;;;18.23;7.72;;;;;;;;;;4996173;28;20026;-66
2021/07/17 01:02:58;;;;;;;25.55;8.25;;;;;;;;;;5007629;28;20035;-66
2021/07/17 01:05:24;;;;;;;23.98;7.35;;;;;;;;;;4988466;28;20081;-66
2021/07/17 01:07:50;;;;;;;45.60;7.78;;;;;;;;;;4996384;28;20042;-66
2021/07/17 01:10:18;;;;;;;24.40;8.25;;;;;;;;;;4993170;28;20026;-66
2021/07/17 01:12:44;;;;;;;21.55;7.60;;;;;;;;;;4993044;28;20477;-66
2021/07/17 01:15:10;;;;;;;32.30;8.75;;;;;;;;;;4992671;28;20065;-66
2021/07/17 01:17:36;;;;;;;24.48;8.52;;;;;;;;;;4984789;28;20030;-65
2021/07/17 01:20:05;;;;;;;23.67;8.55;;;;;;;;;;4990429;28;20031;-66
2021/07/17 01:22:31;;;;;;;21.88;8.75;;;;;;;;;;4980707;28;20019;-66
2021/07/17 01:24:57;;;;;;;25.85;9.05;;;;;;;;;;4984534;28;20022;-66
2021/07/17 01:27:23;;;;;;;30.13;8.75;;;;;;;;;;4993583;28;20042;-66
2021/07/17 01:29:49;;;;;;;32.60;8.63;;;;;;;;;;4984827;28;20463;-66
2021/07/17 01:32:19;;;;;;;28.90;8.73;;;;;;;;;;4992548;28;20101;-66
2021/07/17 01:34:45;;;;;;;21.63;8.20;;;;;;;;;;4996999;28;20026;-66
2021/07/17 01:37:11;;;;;;;32.78;9.40;;;;;;;;;;4992546;28;20026;-66
2021/07/17 01:39:37;;;;;;;25.50;8.35;;;;;;;;;;4992043;28;20033;-66
2021/07/17 01:42:03;;;;;;;30.75;9.70;;;;;;;;;;4995508;28;20019;-66
2021/07/17 01:44:29;;;;;;;38.72;10.48;;;;;;;;;;4998614;28;20026;-66
2021/07/17 01:46:55;;;;;;;23.98;7.97;;;;;;;;;;4992818;28;20037;-66
2021/07/17 01:49:21;;;;;;;29.92;8.63;;;;;;;;;;4985482;28;20113;-66
2021/07/17 01:51:47;;;;;;;20.60;7.82;;;;;;;;;;4990929;28;20026;-66
2021/07/17 01:54:13;;;;;;;27.40;9.02;;;;;;;;;;4986921;28;20535;-66
2021/07/17 01:56:39;;;;;;;26.95;8.60;;;;;;;;;;4992050;28;20031;-66
2021/07/17 01:59:05;;;;;;;30.33;9.32;;;;;;;;;;4995112;28;20376;-66
2021/07/17 02:01:31;;;;;;;25.48;9.20;;;;;;;;;;4991051;28;20503;-65
2021/07/17 02:03:57;;;;;;;26.73;9.75;;;;;;;;;;4992150;28;20472;-66
2021/07/17 02:06:27;;;;;;;27.95;9.27;;;;;;;;;;4994183;28;20033;-66
2021/07/17 02:08:53;;;;;;;;;;;;;;;;;;4992781;28;20117;-66
2021/07/17 02:11:19;;;;;;;32.70;8.43;;;;;;;;;;4992231;28;19989;-66
2021/07/17 02:13:47;;;;;;;32.10;8.77;;;;;;;;;;4991832;28;20034;-66
2021/07/17 02:16:13;;;;;;;35.85;8.75;;;;;;;;;;4994947;28;20023;-66
2021/07/17 02:18:39;;;;;;;31.02;8.38;;;;;;;;;;4998591;28;20029;-66
2021/07/17 02:21:06;;;;;;;28.30;8.63;;;;;;;;;;5001607;28;20032;-66
2021/07/17 02:23:33;;;;;;;29.20;8.77;;;;;;;;;;4991273;28;20015;-66
2021/07/17 02:25:59;;;;;;;38.60;8.13;;;;;;;;;;4999024;28;20454;-66
2021/07/17 02:28:25;;;;;;;29.95;8.93;;;;;;;;;;4998783;28;20117;-66
2021/07/17 02:30:51;;;;;;;25.83;8.10;;;;;;;;;;4990048;28;20270;-66
2021/07/17 02:33:18;;;;;;;30.63;8.95;;;;;;;;;;4991520;28;20026;-66
2021/07/17 02:35:44;;;;;;;36.38;9.50;;;;;;;;;;4992021;28;20034;-66
2021/07/17 02:38:10;;;;;;;27.70;8.70;;;;;;;;;;4991314;28;20084;-66
2021/07/17 02:40:36;;;;;;;33.03;9.68;;;;;;;;;;4990004;28;20080;-66
2021/07/17 02:43:02;;;;;;;27.25;10.52;;;;;;;;;;4987757;28;20427;-66
2021/07/17 02:45:28;;;;;;;29.45;9.18;;;;;;;;;;4984240;28;20388;-66
2021/07/17 02:47:54;;;;;;;22.90;7.70;;;;;;;;;;4983520;28;20038;-66
2021/07/17 02:50:20;;;;;;;30.33;9.95;;;;;;;;;;4986273;28;20453;-66
2021/07/17 02:52:46;;;;;;;37.90;9.57;;;;;;;;;;4991593;28;20030;-66
2021/07/17 02:55:12;;;;;;;30.95;9.43;;;;;;;;;;4993646;28;20161;-66
2021/07/17 02:57:38;;;;;;;33.45;9.63;;;;;;;;;;4981997;28;20114;-66
2021/07/17 03:00:06;;;;;;;34.35;9.18;;;;;;;;;;4979191;28;20149;-66
2021/07/17 03:02:32;;;;;;;26.80;9.02;;;;;;;;;;4974247;28;20018;-66
2021/07/17 03:04:58;;;;;;;30.27;9.38;;;;;;;;;;4977828;28;20384;-66
2021/07/17 03:07:23;;;;;;;34.92;9.57;;;;;;;;;;4978834;28;20034;-65
2021/07/17 03:09:49;;;;;;;26.73;8.80;;;;;;;;;;5005307;28;20044;-66
2021/07/17 03:12:15;;;;;;;29.70;8.90;;;;;;;;;;4993228;28;20022;-65
2021/07/17 03:14:41;;;;;;;27.25;9.45;;;;;;;;;;4991408;28;20038;-66
2021/07/17 03:17:07;;;;;;;40.13;10.30;;;;;;;;;;4986406;28;20054;-66
2021/07/17 03:19:33;;;;;;;31.42;9.73;;;;;;;;;;4985015;28;20058;-65
2021/07/17 03:21:59;;;;;;;34.83;10.13;;;;;;;;;;4983157;28;20099;-66
2021/07/17 03:24:25;;;;;;;27.00;8.35;;;;;;;;;;4989422;28;20439;-66
2021/07/17 03:26:51;;;;;;;25.23;9.13;;;;;;;;;;4988522;28;20034;-66
2021/07/17 03:29:17;;;;;;;25.30;8.15;;;;;;;;;;4984695;28;20030;-65
2021/07/17 03:31:44;;;;;;;23.75;8.63;;;;;;;;;;4985712;28;20089;-65
2021/07/17 03:34:10;;;;;;;23.17;8.23;;;;;;;;;;4981749;28;20045;-65
2021/07/17 03:36:36;;;;;;;31.27;9.27;;;;;;;;;;4978513;28;20030;-65
2021/07/17 03:39:02;;;;;;;28.85;8.93;;;;;;;;;;4981087;28;20026;-66
2021/07/17 03:41:28;;;;;;;25.00;9.00;;;;;;;;;;4976721;28;20102;-65
2021/07/17 03:43:54;;;;;;;31.50;9.48;;;;;;;;;;4979382;28;20759;-65
2021/07/17 03:46:20;;;;;;;24.95;9.88;;;;;;;;;;4973735;28;20542;-65
2021/07/17 03:48:46;;;;;;;30.92;8.48;;;;;;;;;;4976550;28;20047;-65
2021/07/17 03:51:12;;;;;;;27.73;9.52;;;;;;;;;;4986139;28;20053;-65
2021/07/17 03:53:38;;;;;;;30.23;9.75;;;;;;;;;;4981734;28;20037;-65
2021/07/17 03:56:04;;;;;;;27.95;9.18;;;;;;;;;;4985946;28;20033;-66
2021/07/17 03:58:30;;;;;;;35.28;8.80;;;;;;;;;;4980116;28;20027;-65
2021/07/17 04:00:56;;;;;;;27.92;9.32;;;;;;;;;;4979927;28;20027;-66
2021/07/17 04:03:23;;;;;;;32.78;9.02;;;;;;;;;;4978637;28;20053;-66
2021/07/17 04:05:49;;;;;;;28.38;9.50;;;;;;;;;;4981927;28;20022;-65
2021/07/17 04:08:15;;;;;;;31.33;8.85;;;;;;;;;;4987897;28;20023;-66
2021/07/17 04:10:41;;;;;;;33.08;9.20;;;;;;;;;;4987336;28;20144;-65
2021/07/17 04:13:07;;;;;;;29.95;9.27;;;;;;;;;;4985211;28;20065;-66
2021/07/17 04:15:33;;;;;;;28.55;9.02;;;;;;;;;;4988242;28;20033;-66
2021/07/17 04:17:59;;;;;;;29.70;9.27;;;;;;;;;;4989818;28;20089;-66
2021/07/17 04:20:25;;;;;;;29.60;8.68;;;;;;;;;;4989302;28;20102;-65
2021/07/17 04:22:51;;;;;;;26.17;8.35;;;;;;;;;;4988078;28;20031;-65
2021/07/17 04:25:17;;;;;;;21.95;8.07;;;;;;;;;;4977560;28;20034;-65
2021/07/17 04:27:43;;;;;;;18.65;8.07;;;;;;;;;;4983811;28;20044;-65
2021/07/17 04:30:09;;;;;;;28.55;9.48;;;;;;;;;;4989454;28;20034;-66
2021/07/17 04:32:36;;;;;;;29.13;8.65;;;;;;;;;;4980701;28;20070;-65
2021/07/17 04:35:02;;;;;;;30.80;9.07;;;;;;;;;;4978761;28;20030;-65
2021/07/17 04:37:29;;;;;;;26.75;8.20;;;;;;;;;;4974342;28;20361;-65
2021/07/17 04:39:56;;;;;;;28.70;8.23;;;;;;;;;;4972920;28;20383;-66
2021/07/17 04:42:21;;;;;;;29.52;9.05;;;;;;;;;;4984576;28;20488;-66
2021/07/17 04:44:47;;;;;;;26.45;8.80;;;;;;;;;;4976987;28;20051;-66
2021/07/17 04:47:13;;;;;;;31.30;8.48;;;;;;;;;;4975237;28;20034;-65
2021/07/17 04:52:07;;;;;;;22.58;8.07;;;;;;;;;;4963673;28;20089;-67
2021/07/17 04:54:33;;;;;;;30.52;8.40;;;;;;;;;;4959256;28;20023;-67
2021/07/17 04:56:59;;;;;;;25.02;8.10;;;;;;;;;;4960130;28;20019;-67
2021/07/17 04:59:25;;;;;;;24.25;7.13;;;;;;;;;;4958765;28;20086;-67
2021/07/17 05:01:51;;;;;;;28.08;7.53;;;;;;;;;;4962947;28;20028;-67
2021/07/17 05:04:17;;;;;;;32.10;8.13;;;;;;;;;;4964615;28;20034;-67
2021/07/17 05:06:43;;;;;;;25.80;7.45;;;;;;;;;;4965461;28;20030;-67
2021/07/17 05:09:09;;;;;;;37.92;8.18;;;;;;;;;;4963358;28;20050;-67
2021/07/17 05:11:36;;;;;;;34.70;8.43;;;;;;;;;;4958809;28;20126;-67
2021/07/17 05:14:01;;;;;;;28.17;7.90;;;;;;;;;;4964371;28;20037;-67
2021/07/17 05:16:27;;;;;;;24.15;7.03;;;;;;;;;;4974850;28;20027;-67
2021/07/17 05:18:53;;;;;;;22.20;6.70;;;;;;;;;;4970378;28;20027;-67
2021/07/17 05:21:19;;;;;;;27.80;6.68;;;;;;;;;;4968657;28;20030;-67
2021/07/17 05:23:46;;;;;;;22.15;6.25;;;;;;;;;;4963629;28;20439;-67
2021/07/17 05:26:12;;;;;;;23.65;5.85;;;;;;;;;;4967432;28;20019;-67
2021/07/17 05:28:38;;;;;;;22.75;6.35;;;;;;;;;;4968311;28;20033;-68
2021/07/17 05:31:04;;;;;;;23.92;6.88;;;;;;;;;;4966363;28;20035;-67
2021/07/17 05:33:30;;;;;;;20.02;6.20;;;;;;;;;;4964273;28;20031;-67
2021/07/17 05:35:56;;;;;;;25.75;6.65;;;;;;;;;;4968600;28;20030;-67
2021/07/17 05:38:22;;;;;;;18.52;5.25;;;;;;;;;;4970430;28;20023;-67
2021/07/17 05:40:47;;;;;;;21.92;6.15;;;;;;;;;;4965765;28;20404;-67
2021/07/17 05:43:13;;;;;;;22.42;5.47;;;;;;;;;;4960176;28;20074;-68
2021/07/17 05:45:39;;;;;;;21.20;5.78;;;;;;;;;;4967350;28;20039;-67
2021/07/17 05:48:05;;;;;;;18.40;4.93;;;;;;;;;;4964556;28;20037;-68
2021/07/17 05:50:32;;;;;;;17.60;4.88;;;;;;;;;;4961162;28;20043;-67
2021/07/17 05:52:58;;;;;;;15.70;4.28;;;;;;;;;;4966313;28;20515;-67
2021/07/17 05:55:24;;;;;;;22.02;4.78;;;;;;;;;;4964365;28;20058;-67
2021/07/17 05:57:50;;;;;;;19.02;5.13;;;;;;;;;;4984422;28;20019;-67
2021/07/17 06:00:19;;;;;;;17.83;4.55;;;;;;;;;;4965207;28;20027;-68
2021/07/17 06:02:46;;;;;;;15.93;3.83;;;;;;;;;;4966991;28;20015;-67
2021/07/17 06:05:12;;;;;;;14.00;3.90;;;;;;;;;;4970203;28;20026;-67
2021/07/17 06:07:38;;;;;;;18.45;4.28;;;;;;;;;;4963027;28;20109;-68
2021/07/17 06:10:04;;;;;;;13.73;3.58;;;;;;;;;;4959950;28;20058;-67
2021/07/17 06:12:30;;;;;;;12.85;3.60;;;;;;;;;;4963679;28;20031;-68
2021/07/17 06:14:56;;;;;;;16.63;3.28;;;;;;;;;;4962525;28;20589;-68
2021/07/17 06:17:22;;;;;;;10.48;3.00;;;;;;;;;;4962935;28;20039;-67
2021/07/17 06:19:48;;;;;;;14.18;3.10;;;;;;;;;;4966270;28;20468;-68
2021/07/17 06:22:14;;;;;;;14.38;3.10;;;;;;;;;;4965850;28;20114;-68
2021/07/17 06:24:40;;;;;;;15.32;3.55;;;;;;;;;;4957360;28;20488;-68
2021/07/17 06:27:07;;;;;;;10.80;2.83;;;;;;;;;;4967442;28;20111;-68
2021/07/17 06:29:33;;;;;;;9.55;2.78;;;;;;;;;;4965052;28;20070;-68
2021/07/17 06:31:59;;;;;;;10.63;3.17;;;;;;;;;;4969400;28;20047;-68
2021/07/17 06:34:25;;;;;;;12.13;3.25;;;;;;;;;;4968505;28;20034;-68
2021/07/17 06:36:51;;;;;;;10.70;2.97;;;;;;;;;;4968735;28;20404;-68
2021/07/17 06:39:17;;;;;;;13.98;3.22;;;;;;;;;;4964555;28;20046;-68
2021/07/17 06:41:43;;;;;;;10.82;2.92;;;;;;;;;;4965035;28;20038;-68
2021/07/17 06:44:09;;;;;;;9.95;2.60;;;;;;;;;;4961293;28;20027;-68
2021/07/17 06:46:35;;;;;;;9.50;3.13;;;;;;;;;;4965600;28;20081;-68
2021/07/17 06:49:01;;;;;;;8.90;2.40;;;;;;;;;;4965168;28;20031;-68
2021/07/17 06:51:27;;;;;;;7.80;2.78;;;;;;;;;;4964760;28;20035;-68
2021/07/17 06:53:53;;;;;;;8.43;2.72;;;;;;;;;;4964055;28;20035;-68
2021/07/17 06:56:21;;;;;;;13.35;2.60;;;;;;;;;;4963869;28;20413;-68
2021/07/17 06:58:47;;;;;;;5.80;1.90;;;;;;;;;;4959984;28;20133;-69
2021/07/17 07:01:12;;;;;;;9.25;2.22;;;;;;;;;;4961538;28;20114;-69
2021/07/17 07:03:38;;;;;;;10.90;2.65;;;;;;;;;;4960726;28;20472;-68
2021/07/17 07:06:04;;;;;;;9.70;2.70;;;;;;;;;;4962394;28;20031;-68
2021/07/17 07:08:31;;;;;;;11.70;2.47;;;;;;;;;;4964694;28;20027;-68
2021/07/17 07:10:57;;;;;;;9.60;2.30;;;;;;;;;;4957076;28;20027;-68
2021/07/17 07:13:23;;;;;;;10.27;2.70;;;;;;;;;;4961825;28;20082;-68
2021/07/17 07:15:49;;;;;;;11.98;2.75;;;;;;;;;;4957132;28;20043;-68
2021/07/17 07:18:15;;;;;;;8.25;2.17;;;;;;;;;;4967000;28;20027;-68
2021/07/17 07:20:41;;;;;;;9.13;2.20;;;;;;;;;;4953458;28;20029;-68
2021/07/17 07:23:07;;;;;;;7.15;1.88;;;;;;;;;;4958243;28;20536;-69
2021/07/17 07:25:33;;;;;;;9.40;2.17;;;;;;;;;;4959005;28;21391;-69
2021/07/17 07:27:59;;;;;;;11.07;2.35;;;;;;;;;;4952993;28;20033;-69
2021/07/17 07:30:25;;;;;;;9.30;1.75;;;;;;;;;;4952038;28;20199;-69
2021/07/17 07:32:52;;;;;;;9.82;2.72;;;;;;;;;;4955960;28;20138;-68
2021/07/17 07:35:18;;;;;;;6.95;1.92;;;;;;;;;;4971175;28;20030;-67
2021/07/17 07:37:45;;;;;;;7.53;1.83;;;;;;;;;;4957285;28;20416;-68
2021/07/17 07:40:11;;;;;;;8.60;1.80;;;;;;;;;;4963429;28;20026;-68
2021/07/17 07:42:37;;;;;;;7.82;1.85;;;;;;;;;;4955774;28;20042;-68
2021/07/17 07:45:03;;;;;;;5.78;1.83;;;;;;;;;;4955739;28;20443;-68
2021/07/17 07:47:29;;;;;;;6.80;1.75;;;;;;;;;;4955234;28;20467;-68
2021/07/17 07:49:57;;;;;;;8.32;1.75;;;;;;;;;;4956342;28;20106;-68
2021/07/17 07:52:23;;;;;;;6.90;1.65;;;;;;;;;;4957176;28;20042;-67
2021/07/17 07:54:49;;;;;;;12.85;1.65;;;;;;;;;;4955826;28;20114;-68
2021/07/17 07:57:15;;;;;;;6.18;1.73;;;;;;;;;;4961267;28;20063;-68
2021/07/17 07:59:41;;;;;;;7.30;1.85;;;;;;;;;;4960644;28;20094;-68
2021/07/17 08:02:08;;;;;;;6.78;1.70;;;;;;;;;;4968424;28;20039;-68
2021/07/17 08:04:34;;;;;;;7.72;1.70;;;;;;;;;;4965490;28;20444;-68
2021/07/17 08:06:59;;;;;;;6.65;2.00;;;;;;;;;;4954785;28;20117;-69
2021/07/17 08:09:25;;;;;;;5.85;1.27;;;;;;;;;;4964906;28;20498;-68
2021/07/17 08:11:52;;;;;;;6.55;1.40;;;;;;;;;;4962055;28;20038;-68
2021/07/17 08:14:18;;;;;;;6.43;1.67;;;;;;;;;;4969793;28;20189;-69
2021/07/17 08:16:44;;;;;;;4.60;1.48;;;;;;;;;;4963093;28;20038;-68
2021/07/17 08:19:10;;;;;;;6.90;1.42;;;;;;;;;;4965138;28;20384;-68
2021/07/17 08:21:36;;;;;;;5.60;1.67;;;;;;;;;;4966580;28;20015;-68
2021/07/17 08:24:03;;;;;;;6.63;1.90;;;;;;;;;;4968969;28;20158;-72
2021/07/17 08:26:29;;;;;;;5.28;1.40;;;;;;;;;;4969234;28;20030;-67
2021/07/17 08:28:55;;;;;;;4.28;1.00;;;;;;;;;;4969249;28;20045;-67
2021/07/17 08:31:21;;;;;;;8.95;1.73;;;;;;;;;;4971568;28;20027;-68
2021/07/17 08:33:47;;;;;;;4.78;1.30;;;;;;;;;;4966461;28;20093;-68
2021/07/17 08:36:13;;;;;;;4.93;1.10;;;;;;;;;;4959160;28;20045;-68
2021/07/17 08:38:39;;;;;;;4.28;1.20;;;;;;;;;;4964693;28;20027;-67
2021/07/17 08:41:08;;;;;;;5.22;1.60;;;;;;;;;;4959732;28;20058;-68
2021/07/17 08:43:34;;;;;;;5.65;1.35;;;;;;;;;;4961688;28;20069;-67
2021/07/17 08:46:01;;;;;;;8.00;1.50;;;;;;;;;;4968678;28;20031;-68
2021/07/17 08:48:27;;;;;;;3.72;1.17;;;;;;;;;;4967524;28;20022;-68
2021/07/17 08:50:53;;;;;;;6.63;1.50;;;;;;;;;;4967928;28;20039;-68
2021/07/17 08:53:21;;;;;;;5.97;1.52;;;;;;;;;;4976507;28;20031;-68
2021/07/17 08:55:47;;;;;;;6.28;1.58;;;;;;;;;;4956559;28;20069;-68
2021/07/17 08:58:13;;;;;;;7.03;1.40;;;;;;;;;;4961577;28;20554;-68
2021/07/17 09:00:41;;;;;;;5.35;0.80;;;;;;;;;;4965784;28;20033;-68
2021/07/17 09:03:12;;;;;;;2.83;1.03;;;;;;;;;;4960098;28;20023;-68
2021/07/17 09:05:45;;;;;;;5.85;1.50;;;;;;;;;;4961394;28;20027;-68
2021/07/17 09:08:14;;;;;;;4.57;1.13;;;;;;;;;;4965702;28;20035;-68
2021/07/17 09:10:42;;;;;;;2.88;1.02;;;;;;;;;;4963566;28;20104;-68
2021/07/17 09:13:09;;;;;;;4.43;1.40;;;;;;;;;;4969905;28;20078;-67
2021/07/17 09:15:36;;;;;;;5.10;1.00;;;;;;;;;;4967482;28;20038;-67
2021/07/17 09:18:02;;;;;;;5.15;1.02;;;;;;;;;;4970447;28;20035;-68
2021/07/17 09:20:28;;;;;;;4.28;0.80;;;;;;;;;;4966789;28;20027;-68
2021/07/17 09:23:01;;;;;;;4.18;0.80;;;;;;;;;;4962827;28;20038;-68
2021/07/17 09:25:41;;;;;;;2.90;0.73;;;;;;;;;;4963562;28;20029;-68
2021/07/17 09:28:21;;;;;;;8.07;1.10;;;;;;;;;;4955342;28;20089;-67
2021/07/17 09:30:48;;;;;;;4.18;0.82;;;;;;;;;;4957685;28;20097;-68
2021/07/17 09:33:15;;;;;;;5.28;0.85;;;;;;;;;;4968585;28;20026;-71
2021/07/17 09:35:41;;;;;;;4.05;0.88;;;;;;;;;;4968923;28;20467;-71
2021/07/17 09:38:08;;;;;;;3.53;0.93;;;;;;;;;;4970129;28;20469;-68
2021/07/17 09:40:43;;;;;;;5.55;0.73;;;;;;;;;;4970737;28;20026;-69
2021/07/17 09:43:10;;;;;;;4.45;1.17;;;;;;;;;;4969595;28;20480;-68
2021/07/17 09:45:36;;;;;;;4.32;0.90;;;;;;;;;;4987142;28;20025;-69
2021/07/17 09:48:23;;;;;;;2.90;0.77;;;;;;;;;;4971070;28;20050;-68
2021/07/17 09:50:49;;;;;;;7.40;1.65;;;;;;;;;;4969893;28;20401;-69
2021/07/17 09:53:34;;;;;;;4.18;1.17;;;;;;;;;;4985982;28;20050;-68
2021/07/17 09:56:12;;;;;;;4.40;0.90;;;;;;;;;;4971955;28;20022;-69
2021/07/17 09:58:38;;;;;;;3.30;0.50;;;;;;;;;;4966776;28;20025;-69
2021/07/17 10:01:13;;;;;;;3.97;0.57;;;;;;;;;;4970043;28;20675;-69
2021/07/17 10:03:39;;;;;;;4.00;0.73;;;;;;;;;;4972412;28;20019;-69
2021/07/17 10:06:07;;;;;;;2.40;0.73;;;;;;;;;;4972951;28;20077;-69
2021/07/17 10:08:34;;;;;;;4.72;0.60;;;;;;;;;;4972707;28;20106;-69
2021/07/17 10:11:02;;;;;;;2.22;0.50;;;;;;;;;;4987722;28;20137;-69
2021/07/17 10:13:28;;;;;;;3.78;0.50;;;;;;;;;;4971173;28;20022;-69
2021/07/17 10:15:56;;;;;;;3.15;0.60;;;;;;;;;;4971280;28;20030;-69
2021/07/17 10:18:25;;;;;;;2.35;0.40;;;;;;;;;;4986061;28;20093;-69
2021/07/17 10:20:51;;;;;;;;;;;;;;;;;;4970852;28;20061;-69
2021/07/17 10:23:17;;;;;;;1.92;0.47;;;;;;;;;;4972870;28;19937;-68
2021/07/17 10:25:44;;;;;;;1.52;0.50;;;;;;;;;;4972334;28;20023;-69
2021/07/17 10:28:10;;;;;;;4.10;0.75;;;;;;;;;;4973245;28;20065;-69
2021/07/17 10:30:36;;;;;;;2.85;0.47;;;;;;;;;;4973991;28;20058;-69
2021/07/17 10:33:02;;;;;;;4.05;0.45;;;;;;;;;;4969444;28;20081;-69
2021/07/17 10:35:28;;;;;;;2.55;0.50;;;;;;;;;;4968000;28;20472;-69
2021/07/17 10:37:56;;;;;;;7.65;0.63;;;;;;;;;;4972481;28;20451;-69
2021/07/17 10:40:23;;;;;;;5.75;0.55;;;;;;;;;;4972381;28;20026;-69
2021/07/17 10:42:51;;;;;;;4.20;0.52;;;;;;;;;;4971906;28;20105;-69
2021/07/17 10:45:37;;;;;;;3.00;0.70;;;;;;;;;;4964521;28;20110;-69
2021/07/17 10:48:24;;;;;;;1.95;0.50;;;;;;;;;;4966891;28;20034;-69
2021/07/17 10:50:50;;;;;;;2.15;0.60;;;;;;;;;;4972494;28;20027;-69
2021/07/17 10:53:34;;;;;;;2.83;0.50;;;;;;;;;;4972043;28;20369;-69
2021/07/17 10:56:20;;;;;;;5.38;0.60;;;;;;;;;;4986965;28;20126;-69
2021/07/17 10:58:46;;;;;;;4.07;0.68;;;;;;;;;;4969004;28;20484;-69
2021/07/17 11:01:14;;;;;;;2.08;0.55;;;;;;;;;;4972264;28;20027;-69
2021/07/17 11:03:40;;;;;;;3.50;0.55;;;;;;;;;;4966470;28;20012;-69
2021/07/17 11:06:24;;;;;;;6.55;0.38;;;;;;;;;;4971802;28;20033;-69
2021/07/17 11:08:51;;;;;;;2.40;0.40;;;;;;;;;;4971935;28;20034;-69
2021/07/17 11:11:35;;;;;;;2.35;0.35;;;;;;;;;;4985779;28;20469;-69
2021/07/17 11:14:07;;;;;;;2.80;0.63;;;;;;;;;;4970819;28;20019;-69
2021/07/17 11:16:44;;;;;;;3.90;0.40;;;;;;;;;;4971250;28;20031;-69
2021/07/17 11:19:26;;;;;;;2.58;0.50;;;;;;;;;;4964467;28;20019;-69
2021/07/17 11:21:53;;;;;;;0.65;0.20;;;;;;;;;;4970746;28;20027;-69
2021/07/17 11:24:23;;;;;;;2.67;0.57;;;;;;;;;;4972094;28;20054;-69
2021/07/17 11:27:06;;;;;;;5.00;0.50;;;;;;;;;;4971249;28;20031;-70
2021/07/17 11:29:38;;;;;;;3.05;0.88;;;;;;;;;;4971961;28;20542;-69
2021/07/17 11:32:08;;;;;;;6.13;0.85;;;;;;;;;;4969342;28;20456;-69
2021/07/17 11:34:37;;;;;;;2.67;0.50;;;;;;;;;;4967059;28;20107;-69
2021/07/17 11:37:06;;;;;;;9.15;0.82;;;;;;;;;;4970996;28;20407;-69
2021/07/17 11:39:33;;;;;;;3.10;0.68;;;;;;;;;;4986266;28;20022;-69
2021/07/17 11:42:00;;;;;;;3.58;0.52;;;;;;;;;;4985995;28;20034;-69
2021/07/17 11:44:27;;;;;;;4.28;0.55;;;;;;;;;;4965979;28;20358;-69
2021/07/17 11:46:56;;;;;;;3.10;0.50;;;;;;;;;;4966045;28;20039;-69
2021/07/17 11:49:30;;;;;;;3.40;0.40;;;;;;;;;;4970922;28;20030;-70
2021/07/17 11:51:58;;;;;;;4.20;0.40;;;;;;;;;;4968216;28;20522;-70
2021/07/17 11:54:27;;;;;;;3.03;0.55;;;;;;;;;;4970631;28;20035;-70
2021/07/17 11:57:03;;;;;;;2.83;0.43;;;;;;;;;;4970833;28;20509;-70
2021/07/17 11:59:29;;;;;;;2.15;0.40;;;;;;;;;;4967459;28;20023;-70
2021/07/17 12:02:01;;;;;;;1.67;0.47;;;;;;;;;;4961954;28;20163;-70
2021/07/17 12:04:34;;;;;;;2.97;0.70;;;;;;;;;;4970693;28;20023;-70
2021/07/17 12:07:04;;;;;;;3.20;0.60;;;;;;;;;;4970022;28;20035;-70
2021/07/17 12:09:37;;;;;;;3.47;0.93;;;;;;;;;;4970361;28;20034;-71
2021/07/17 12:12:22;;;;;;;3.25;0.55;;;;;;;;;;4963161;28;20042;-70
2021/07/17 12:14:55;;;;;;;2.63;1.00;;;;;;;;;;4958300;28;20027;-70
2021/07/17 12:17:25;;;;;;;4.82;0.98;;;;;;;;;;4958604;28;20030;-70
2021/07/17 12:20:03;;;;;;;5.75;0.77;;;;;;;;;;4958693;28;20042;-70
2021/07/17 12:22:29;;;;;;;3.40;0.50;;;;;;;;;;4957630;28;20023;-70
2021/07/17 12:25:09;;;;;;;3.03;0.88;;;;;;;;;;4967493;28;20030;-70
2021/07/17 12:27:54;;;;;;;2.47;0.70;;;;;;;;;;4956231;28;20427;-70
2021/07/17 12:30:20;;;;;;;5.07;0.80;;;;;;;;;;4957140;28;20188;-70
2021/07/17 12:32:46;;;;;;;2.70;0.50;;;;;;;;;;4956515;28;20031;-70
2021/07/17 12:35:19;;;;;;;3.35;0.88;;;;;;;;;;4957214;28;20078;-70
2021/07/17 12:37:45;;;;;;;4.65;0.85;;;;;;;;;;4965107;28;20081;-70
2021/07/17 12:40:11;;;;;;;3.45;0.73;;;;;;;;;;4965908;28;20035;-70
2021/07/17 12:42:48;;;;;;;3.78;0.90;;;;;;;;;;4968716;28;20026;-70
2021/07/17 12:45:18;;;;;;;4.57;0.85;;;;;;;;;;4954259;28;20031;-70
2021/07/17 12:47:48;;;;;;;2.80;0.40;;;;;;;;;;4957633;28;20496;-70
2021/07/17 12:50:14;;;;;;;2.30;0.52;;;;;;;;;;4957416;28;20352;-70
2021/07/17 12:52:40;;;;;;;2.17;0.32;;;;;;;;;;4956100;28;20038;-70
2021/07/17 12:55:06;;;;;;;3.55;0.38;;;;;;;;;;4957234;28;20026;-70
2021/07/17 12:57:34;;;;;;;2.88;0.63;;;;;;;;;;4965561;28;20031;-69
2021/07/17 13:00:00;;;;;;;2.45;0.40;;;;;;;;;;4956665;28;20539;-69
2021/07/17 13:02:28;;;;;;;3.13;0.60;;;;;;;;;;4957194;28;20098;-69
2021/07/17 13:04:54;;;;;;;2.58;0.45;;;;;;;;;;4957894;28;20039;-70
2021/07/17 13:07:36;;;;;;;2.50;0.40;;;;;;;;;;4963060;28;20160;-71
2021/07/17 13:10:03;;;;;;;2.33;0.40;;;;;;;;;;4971536;28;20499;-69
2021/07/17 13:12:30;;;;;;;1.90;0.40;;;;;;;;;;4972312;28;20106;-69
2021/07/17 13:14:57;;;;;;;2.50;0.70;;;;;;;;;;4967458;28;20528;-69
2021/07/17 13:17:23;;;;;;;3.17;0.93;;;;;;;;;;4976027;28;20040;-69
2021/07/17 13:20:01;;;;;;;5.18;0.70;;;;;;;;;;4965801;28;20038;-69
2021/07/17 13:22:35;;;;;;;2.27;0.57;;;;;;;;;;4958930;28;20018;-69
2021/07/17 13:25:10;;;;;;;2.05;0.40;;;;;;;;;;4959373;28;20370;-69
2021/07/17 13:27:36;;;;;;;2.90;1.05;;;;;;;;;;4955774;28;20042;-69
2021/07/17 13:30:02;;;;;;;5.38;0.95;;;;;;;;;;4958194;28;20151;-69
2021/07/17 13:32:28;;;;;;;1.88;0.40;;;;;;;;;;4961075;28;20023;-69
2021/07/17 13:34:55;;;;;;;1.88;0.45;;;;;;;;;;4959778;28;20023;-69
2021/07/17 13:37:22;;;;;;;3.42;0.60;;;;;;;;;;4956984;28;20034;-69
2021/07/17 13:39:52;;;;;;;2.95;0.60;;;;;;;;;;4961399;28;20491;-68
2021/07/17 13:42:19;;;;;;;2.85;0.47;;;;;;;;;;4962411;28;20027;-68
2021/07/17 13:44:46;;;;;;;2.78;0.43;;;;;;;;;;4972508;28;20087;-68
2021/07/17 13:47:12;;;;;;;2.42;0.63;;;;;;;;;;4966010;28;20034;-68
2021/07/17 13:49:38;;;;;;;1.92;0.52;;;;;;;;;;4968650;28;20101;-69
2021/07/17 13:52:04;;;;;;;1.33;0.43;;;;;;;;;;4967753;28;20170;-69
2021/07/17 13:54:30;;;;;;;3.30;0.50;;;;;;;;;;4968698;28;20034;-68
2021/07/17 13:56:56;;;;;;;1.02;0.28;;;;;;;;;;4971217;28;20400;-69
2021/07/17 13:59:27;;;;;;;3.22;0.73;;;;;;;;;;4971209;28;20026;-69
2021/07/17 14:02:03;;;;;;;2.45;0.40;;;;;;;;;;4959036;28;20114;-69
2021/07/17 14:04:29;;;;;;;3.67;0.68;;;;;;;;;;4966334;28;20011;-69
2021/07/17 14:06:55;;;;;;;1.40;0.43;;;;;;;;;;4970936;28;20038;-69
2021/07/17 14:09:21;;;;;;;2.53;0.70;;;;;;;;;;4957972;28;20027;-69
2021/07/17 14:11:47;;;;;;;2.95;0.77;;;;;;;;;;4955346;28;20053;-69
2021/07/17 14:14:13;;;;;;;3.90;0.70;;;;;;;;;;4957573;28;20042;-69
2021/07/17 14:16:39;;;;;;;4.53;0.90;;;;;;;;;;4963900;28;20164;-69
2021/07/17 14:19:05;;;;;;;3.70;0.88;;;;;;;;;;4973024;28;20070;-69
2021/07/17 14:21:31;;;;;;;2.30;0.80;;;;;;;;;;4963167;28;20090;-69
2021/07/17 14:23:57;;;;;;;2.47;0.60;;;;;;;;;;4963201;28;20519;-69
2021/07/17 14:26:23;;;;;;;2.15;0.85;;;;;;;;;;4963378;28;20066;-69
2021/07/17 14:28:49;;;;;;;2.67;0.57;;;;;;;;;;4970920;28;20610;-72
2021/07/17 14:31:15;;;;;;;2.10;0.77;;;;;;;;;;4971690;28;20023;-69
2021/07/17 14:33:42;;;;;;;2.83;0.60;;;;;;;;;;4959274;28;20023;-70
2021/07/17 14:36:08;;;;;;;1.77;0.30;;;;;;;;;;4958439;28;20027;-70
2021/07/17 14:38:36;;;;;;;4.78;0.82;;;;;;;;;;4955412;28;20058;-69
2021/07/17 14:41:05;;;;;;;6.38;0.80;;;;;;;;;;4950621;28;20031;-69
2021/07/17 14:43:31;;;;;;;4.05;0.88;;;;;;;;;;4951784;28;20038;-70